createdAt,value
2017-03-09T00:00:29.231Z,11.88
2017-03-09T00:02:53.601Z,11.86
2017-03-09T00:05:16.903Z,11.85
2017-03-09T00:07:40.213Z,12.08
2017-03-09T00:10:03.499Z,11.81
2017-03-09T00:12:26.825Z,11.89
2017-03-09T00:14:03.229Z,11.95
2017-03-09T00:16:26.613Z,12.03
2017-03-09T00:18:50.104Z,11.97
2017-03-09T00:21:14.336Z,11.96
2017-03-09T00:22:59.041Z,11.89
2017-03-09T00:25:24.224Z,11.81
2017-03-09T00:27:47.754Z,11.83
2017-03-09T00:30:11.042Z,11.78
2017-03-09T00:32:34.422Z,11.88
2017-03-09T00:34:57.691Z,11.89
2017-03-09T00:37:12.706Z,12.05
2017-03-09T00:39:36.075Z,12.03
2017-03-09T00:41:59.287Z,12.03
2017-03-09T00:44:22.669Z,11.74
2017-03-09T00:46:46.030Z,11.85
2017-03-09T00:49:09.558Z,11.74
2017-03-09T00:51:32.871Z,11.86
2017-03-09T00:53:56.275Z,11.74
2017-03-09T00:56:19.494Z,11.93
2017-03-09T00:58:42.794Z,11.91
2017-03-09T01:01:06.122Z,11.77
2017-03-09T01:03:29.395Z,11.93
2017-03-09T01:05:52.731Z,11.83
2017-03-09T01:08:16.021Z,11.96
2017-03-09T01:10:39.336Z,12.12
2017-03-09T01:13:02.612Z,12.15
2017-03-09T01:15:25.876Z,11.96
2017-03-09T01:17:49.187Z,11.88
2017-03-09T01:20:12.475Z,12.05
2017-03-09T01:22:35.861Z,12.07
2017-03-09T01:24:59.071Z,11.93
2017-03-09T01:27:22.410Z,12.12
2017-03-09T01:29:45.712Z,11.95
2017-03-09T01:32:09.013Z,12.1
2017-03-09T01:34:32.289Z,12.07
2017-03-09T01:36:55.630Z,12
2017-03-09T01:39:18.952Z,12.15
2017-03-09T01:41:42.266Z,11.95
2017-03-09T01:44:05.583Z,11.88
2017-03-09T01:46:06.732Z,11.93
2017-03-09T01:48:21.687Z,11.91
2017-03-09T01:50:44.978Z,11.89
2017-03-09T01:53:08.239Z,11.95
2017-03-09T01:55:23.119Z,11.86
2017-03-09T01:56:58.884Z,12.02
2017-03-09T01:59:22.226Z,11.93
2017-03-09T02:01:45.554Z,12.18
2017-03-09T02:04:08.889Z,12.12
2017-03-09T02:06:32.203Z,12.08
2017-03-09T02:08:42.348Z,12.14
2017-03-09T02:11:05.701Z,12.11
2017-03-09T02:13:29.023Z,12.11
2017-03-09T02:15:52.316Z,11.95
2017-03-09T02:18:15.648Z,12.15
2017-03-09T02:20:38.921Z,12.29
2017-03-09T02:23:02.308Z,11.99
2017-03-09T02:24:55.076Z,12.05
2017-03-09T02:27:18.435Z,12.2
2017-03-09T02:29:41.794Z,12.08
2017-03-09T02:31:42.873Z,12.21
2017-03-09T02:34:06.235Z,12.2
2017-03-09T02:36:29.525Z,12.4
2017-03-09T02:38:52.732Z,12.65
2017-03-09T02:41:16.017Z,12.23
2017-03-09T02:43:39.338Z,12.54
2017-03-09T02:45:54.262Z,12.48
2017-03-09T02:48:17.586Z,12.3
2017-03-09T02:50:40.931Z,12.29
2017-03-09T02:53:04.294Z,12.37
2017-03-09T02:55:27.669Z,12.53
2017-03-09T02:57:42.620Z,12.44
2017-03-09T02:59:44.268Z,12.45
2017-03-09T03:02:07.648Z,12.43
2017-03-09T03:04:31.004Z,12.54
2017-03-09T03:06:54.301Z,12.48
2017-03-09T03:09:17.641Z,12.39
2017-03-09T03:11:40.985Z,12.23
2017-03-09T03:14:04.320Z,12.1
2017-03-09T03:16:27.664Z,12.15
2017-03-09T03:18:51.020Z,12.15
2017-03-09T03:21:14.362Z,12.15
2017-03-09T03:23:29.296Z,12.23
2017-03-09T03:25:52.648Z,12.47
2017-03-09T03:28:16.584Z,12.66
2017-03-09T03:30:39.951Z,12.57
2017-03-09T03:32:54.912Z,12.44
2017-03-09T03:35:18.234Z,12.61
2017-03-09T03:37:33.170Z,12.53
2017-03-09T03:39:56.526Z,12.7
2017-03-09T03:42:19.868Z,12.66
2017-03-09T03:44:34.812Z,12.51
2017-03-09T03:46:36.490Z,12.63
2017-03-09T03:49:00.882Z,12.54
2017-03-09T03:51:24.234Z,12.55
2017-03-09T03:53:47.586Z,12.29
2017-03-09T03:56:02.540Z,12.43
2017-03-09T03:58:25.876Z,12.39
2017-03-09T04:00:49.215Z,12.51
2017-03-09T04:03:12.567Z,12.54
2017-03-09T04:05:35.899Z,12.58
2017-03-09T04:07:59.166Z,12.53
2017-03-09T04:10:22.473Z,12.73
2017-03-09T04:12:45.820Z,12.61
2017-03-09T04:15:09.172Z,12.37
2017-03-09T04:17:32.518Z,12.48
2017-03-09T04:19:55.902Z,12.51
2017-03-09T04:22:19.249Z,12.54
2017-03-09T04:24:28.927Z,12.69
2017-03-09T04:26:30.658Z,12.53
2017-03-09T04:28:45.650Z,12.37
2017-03-09T04:31:09.004Z,12.39
2017-03-09T04:33:23.949Z,12.51
2017-03-09T04:35:47.315Z,12.4
2017-03-09T04:38:10.697Z,12.66
2017-03-09T04:40:34.033Z,12.75
2017-03-09T04:42:57.390Z,12.5
2017-03-09T04:45:20.773Z,12.5
2017-03-09T04:47:35.706Z,12.5
2017-03-09T04:49:59.001Z,12.5
2017-03-09T04:52:22.356Z,12.47
2017-03-09T04:54:45.697Z,12.43
2017-03-09T04:56:21.468Z,12.5
2017-03-09T04:58:36.470Z,12.5
2017-03-09T05:00:59.781Z,12.48
2017-03-09T05:03:23.139Z,12.53
2017-03-09T05:05:46.484Z,12.54
2017-03-09T05:07:22.239Z,12.72
2017-03-09T05:09:32.351Z,12.87
2017-03-09T05:11:55.747Z,12.57
2017-03-09T05:14:19.069Z,12.43
2017-03-09T05:16:42.443Z,12.39
2017-03-09T05:19:05.748Z,12.66
2017-03-09T05:21:29.085Z,12.7
2017-03-09T05:23:44.029Z,12.55
2017-03-09T05:26:07.295Z,12.76
2017-03-09T05:28:30.638Z,12.94
2017-03-09T05:30:53.977Z,12.83
2017-03-09T05:32:46.733Z,12.86
2017-03-09T05:35:10.095Z,12.8
2017-03-09T05:36:45.830Z,12.83
2017-03-09T05:39:09.201Z,12.63
2017-03-09T05:41:24.152Z,12.63
2017-03-09T05:43:47.524Z,12.53
2017-03-09T05:46:10.863Z,12.43
2017-03-09T05:48:34.210Z,12.51
2017-03-09T05:50:43.859Z,12.11
2017-03-09T05:53:07.252Z,12.39
2017-03-09T05:55:30.571Z,12.47
2017-03-09T05:57:53.951Z,12.33
2017-03-09T06:00:08.911Z,12.57
2017-03-09T06:02:23.899Z,12.51
2017-03-09T06:04:47.222Z,12.44
2017-03-09T06:07:10.516Z,12.55
2017-03-09T06:09:33.862Z,12.7
2017-03-09T06:11:57.195Z,12.57
2017-03-09T06:14:20.470Z,12.69
2017-03-09T06:16:43.807Z,12.63
2017-03-09T06:18:20.090Z,12.68
2017-03-09T06:20:35.071Z,12.7
2017-03-09T06:22:58.447Z,12.8
2017-03-09T06:25:21.939Z,12.87
2017-03-09T06:27:45.288Z,12.87
2017-03-09T06:30:08.594Z,12.65
2017-03-09T06:32:31.974Z,12.8
2017-03-09T06:34:55.304Z,12.95
2017-03-09T06:37:18.620Z,12.88
2017-03-09T06:39:19.773Z,12.69
2017-03-09T06:41:43.177Z,12.63
2017-03-09T06:44:06.556Z,12.76
2017-03-09T06:46:29.949Z,12.83
2017-03-09T06:48:44.951Z,12.87
2017-03-09T06:51:08.430Z,12.95
2017-03-09T06:53:31.713Z,12.99
2017-03-09T06:55:55.530Z,12.65
2017-03-09T06:58:18.393Z,12.76
2017-03-09T07:00:41.692Z,12.58
2017-03-09T07:03:05.072Z,12.78
2017-03-09T07:05:28.362Z,13.19
2017-03-09T07:07:51.705Z,13.17
2017-03-09T07:10:15.070Z,12.9
2017-03-09T07:12:38.433Z,12.76
2017-03-09T07:14:53.447Z,12.95
2017-03-09T07:17:16.881Z,13.23
2017-03-09T07:19:40.228Z,12.95
2017-03-09T07:21:55.280Z,12.81
2017-03-09T07:24:18.596Z,12.91
2017-03-09T07:26:41.971Z,12.99
2017-03-09T07:28:43.103Z,12.95
2017-03-09T07:31:06.537Z,13.02
2017-03-09T07:32:42.268Z,13.11
2017-03-09T07:35:05.702Z,12.93
2017-03-09T07:37:29.127Z,12.95
2017-03-09T07:39:04.881Z,12.88
2017-03-09T07:41:28.305Z,12.83
2017-03-09T07:43:51.708Z,13.05
2017-03-09T07:46:15.089Z,12.73
2017-03-09T07:48:38.484Z,12.84
2017-03-09T07:51:01.871Z,12.8
2017-03-09T07:53:25.284Z,12.98
2017-03-09T07:55:48.698Z,12.8
2017-03-09T07:58:12.096Z,12.73
2017-03-09T08:00:35.500Z,12.87
2017-03-09T08:02:58.885Z,12.69
2017-03-09T08:05:22.221Z,13.01
2017-03-09T08:07:45.547Z,12.98
2017-03-09T08:09:55.696Z,12.94
2017-03-09T08:12:19.118Z,12.84
2017-03-09T08:14:42.446Z,13.02
2017-03-09T08:17:05.846Z,13.16
2017-03-09T08:19:29.324Z,12.93
2017-03-09T08:21:52.707Z,12.94
2017-03-09T08:24:16.115Z,13.03
2017-03-09T08:26:39.459Z,12.93
2017-03-09T08:29:02.863Z,12.91
2017-03-09T08:31:26.291Z,12.93
2017-03-09T08:33:49.639Z,12.91
2017-03-09T08:36:13.037Z,12.98
2017-03-09T08:40:12.102Z,13.16
2017-03-09T08:41:48.332Z,13.2
2017-03-09T08:44:11.795Z,13.01
2017-03-09T08:46:35.206Z,12.98
2017-03-09T08:48:58.613Z,12.95
2017-03-09T08:51:13.606Z,12.88
2017-03-09T08:53:36.974Z,12.98
2017-03-09T08:55:13.997Z,13.09
2017-03-09T08:57:37.451Z,13.13
2017-03-09T09:00:00.851Z,13.21
2017-03-09T09:02:24.204Z,13.13
2017-03-09T09:04:47.600Z,13.21
2017-03-09T09:07:02.601Z,13.33
2017-03-09T09:09:26.002Z,13.43
2017-03-09T09:11:49.404Z,13.47
2017-03-09T09:14:12.878Z,13.23
2017-03-09T09:15:49.891Z,13.49
2017-03-09T09:18:13.341Z,13.09
2017-03-09T09:20:36.786Z,13.19
2017-03-09T09:23:00.346Z,13.27
2017-03-09T09:25:23.815Z,13.45
2017-03-09T09:27:47.273Z,13.47
2017-03-09T09:30:11.396Z,13.16
2017-03-09T09:32:34.314Z,13.05
2017-03-09T09:34:57.708Z,13.39
2017-03-09T09:37:21.191Z,13.24
2017-03-09T09:39:44.735Z,13.67
2017-03-09T09:42:08.235Z,13.46
2017-03-09T09:44:31.755Z,13.68
2017-03-09T09:46:55.192Z,13.76
2017-03-09T09:49:18.664Z,13.68
2017-03-09T09:51:42.185Z,13.83
2017-03-09T09:54:07.461Z,13.94
2017-03-09T09:56:32.527Z,13.71
2017-03-09T09:58:55.964Z,13.68
2017-03-09T10:01:19.416Z,13.55
2017-03-09T10:03:42.836Z,13.5
2017-03-09T10:06:06.309Z,13.76
2017-03-09T10:08:29.677Z,13.64
2017-03-09T10:10:53.217Z,13.97
2017-03-09T10:13:16.513Z,13.98
2017-03-09T10:15:40.013Z,14
2017-03-09T10:18:03.448Z,13.71
2017-03-09T10:20:26.925Z,14.15
2017-03-09T10:22:41.977Z,14.11
2017-03-09T10:25:05.530Z,14.44
2017-03-09T10:27:28.941Z,14.25
2017-03-09T10:29:52.496Z,14.33
2017-03-09T10:32:16.024Z,14.49
2017-03-09T10:34:39.493Z,14.38
2017-03-09T10:37:03.040Z,14.58
2017-03-09T10:39:26.524Z,14.99
2017-03-09T10:41:50.031Z,14.99
2017-03-09T10:44:13.553Z,14.3
2017-03-09T10:46:37.064Z,14.51
2017-03-09T10:49:00.538Z,14.41
2017-03-09T10:51:24.027Z,14.44
2017-03-09T10:53:47.585Z,14.23
2017-03-09T10:55:31.750Z,14.3
2017-03-09T10:57:55.269Z,14.31
2017-03-09T11:00:18.816Z,14.48
2017-03-09T11:02:42.295Z,14.22
2017-03-09T11:04:52.493Z,14.12
2017-03-09T11:07:16.023Z,14.41
2017-03-09T11:09:17.196Z,14.26
2017-03-09T11:11:40.618Z,14.16
2017-03-09T11:14:04.095Z,13.98
2017-03-09T11:16:27.511Z,14.07
2017-03-09T11:18:50.959Z,13.95
2017-03-09T11:21:14.442Z,14
2017-03-09T11:23:37.934Z,13.93
2017-03-09T11:26:01.365Z,14.01
2017-03-09T11:28:24.818Z,14.05
2017-03-09T11:30:48.314Z,14.28
2017-03-09T11:33:11.788Z,14.49
2017-03-09T11:35:35.303Z,14.43
2017-03-09T11:37:58.799Z,14.62
2017-03-09T11:40:22.293Z,14.51
2017-03-09T11:42:45.780Z,14.51
2017-03-09T11:45:09.305Z,14.28
2017-03-09T11:47:32.765Z,14.34
2017-03-09T11:49:56.237Z,14.58
2017-03-09T11:52:19.757Z,14.41
2017-03-09T11:54:43.232Z,14.62
2017-03-09T11:57:06.729Z,14.58
2017-03-09T11:59:30.239Z,14.58
2017-03-09T12:01:06.026Z,14.67
2017-03-09T12:03:29.565Z,14.92
2017-03-09T12:05:53.100Z,14.86
2017-03-09T12:08:02.810Z,14.9
2017-03-09T12:10:26.368Z,14.99
2017-03-09T12:12:49.909Z,15.05
2017-03-09T12:15:13.418Z,14.87
2017-03-09T12:17:36.940Z,14.89
2017-03-09T12:20:00.454Z,14.82
2017-03-09T12:22:01.673Z,14.37
2017-03-09T12:24:25.217Z,14.3
2017-03-09T12:26:48.770Z,14.41
2017-03-09T12:29:12.299Z,14.62
2017-03-09T12:31:27.435Z,14.67
2017-03-09T12:33:50.935Z,14.56
2017-03-09T12:35:27.207Z,14.63
2017-03-09T12:37:50.746Z,14.53
2017-03-09T12:40:05.847Z,14.43
2017-03-09T12:42:29.330Z,14.58
2017-03-09T12:44:52.845Z,14.48
2017-03-09T12:47:16.369Z,14.43
2017-03-09T12:49:39.871Z,14.44
2017-03-09T12:52:03.399Z,14.36
2017-03-09T12:54:18.500Z,14.26
2017-03-09T12:56:42.031Z,14.41
2017-03-09T12:59:05.517Z,14.49
2017-03-09T13:01:29.041Z,14.43
2017-03-09T13:03:52.577Z,14.33
2017-03-09T13:06:16.109Z,14.67
2017-03-09T13:08:39.632Z,14.58
2017-03-09T13:10:54.738Z,14.37
2017-03-09T13:13:04.464Z,14.37
2017-03-09T13:15:27.998Z,14.58
2017-03-09T13:17:51.508Z,14.33
2017-03-09T13:20:15.004Z,14.45
2017-03-09T13:22:38.516Z,14.63
2017-03-09T13:25:02.015Z,15.1
2017-03-09T13:27:25.521Z,15.12
2017-03-09T13:29:49.058Z,15.59
2017-03-09T13:32:12.627Z,15.67
2017-03-09T13:34:22.768Z,15.7
2017-03-09T13:36:46.318Z,15.57
2017-03-09T13:39:09.874Z,16.03
2017-03-09T13:41:33.407Z,15.78
2017-03-09T13:43:57.034Z,15.51
2017-03-09T13:46:20.611Z,16.06
2017-03-09T13:48:44.312Z,16.36
2017-03-09T13:51:08.025Z,16.58
2017-03-09T13:53:31.604Z,16.47
2017-03-09T13:55:55.293Z,16.95
2017-03-09T13:58:18.817Z,16.59
2017-03-09T14:00:42.470Z,16.46
2017-03-09T14:03:06.170Z,16.21
2017-03-09T14:05:29.841Z,16.49
2017-03-09T14:07:53.493Z,16.58
2017-03-09T14:10:17.106Z,16.37
2017-03-09T14:12:40.736Z,16.02
2017-03-09T14:15:04.425Z,15.91
2017-03-09T14:17:28.035Z,15.67
2017-03-09T14:19:51.703Z,15.63
2017-03-09T14:22:15.347Z,15.52
2017-03-09T14:24:38.904Z,15.9
2017-03-09T14:27:02.490Z,15.6
2017-03-09T14:29:26.203Z,15.57
2017-03-09T14:31:41.360Z,15.75
2017-03-09T14:34:05.053Z,15.88
2017-03-09T14:36:28.606Z,16.1
2017-03-09T14:38:52.152Z,16.16
2017-03-09T14:41:15.861Z,15.99
2017-03-09T14:43:39.384Z,16.12
2017-03-09T14:46:03.085Z,15.81
2017-03-09T14:48:26.639Z,15.81
2017-03-09T14:50:50.234Z,15.85
2017-03-09T14:53:13.788Z,15.78
2017-03-09T14:55:37.373Z,15.67
2017-03-09T14:57:47.597Z,15.96
2017-03-09T15:00:11.189Z,15.91
2017-03-09T15:02:34.762Z,15.62
2017-03-09T15:04:58.394Z,15.78
2017-03-09T15:07:21.934Z,15.65
2017-03-09T15:09:45.515Z,15.76
2017-03-09T15:12:09.095Z,15.87
2017-03-09T15:14:32.659Z,16.43
2017-03-09T15:16:56.346Z,16.44
2017-03-09T15:19:19.947Z,16.44
2017-03-09T15:21:43.527Z,15.78
2017-03-09T15:23:53.764Z,15.9
2017-03-09T15:26:17.478Z,15.87
2017-03-09T15:28:41.152Z,15.72
2017-03-09T15:31:04.846Z,15.5
2017-03-09T15:33:28.472Z,15.65
2017-03-09T15:35:52.011Z,15.57
2017-03-09T15:37:27.729Z,15.66
2017-03-09T15:39:51.361Z,15.5
2017-03-09T15:42:15.029Z,15.6
2017-03-09T15:44:38.571Z,15.63
2017-03-09T15:47:02.145Z,15.35
2017-03-09T15:49:25.707Z,15.39
2017-03-09T15:51:49.288Z,15.41
2017-03-09T15:54:12.792Z,15.57
2017-03-09T15:56:36.334Z,15.8
2017-03-09T15:58:59.974Z,15.41
2017-03-09T16:01:23.557Z,15.32
2017-03-09T16:03:47.142Z,15.39
2017-03-09T16:06:02.305Z,15.44
2017-03-09T16:08:25.867Z,15.41
2017-03-09T16:10:49.422Z,15.17
2017-03-09T16:13:13.007Z,15.19
2017-03-09T16:15:36.578Z,15.19
2017-03-09T16:18:00.141Z,15.12
2017-03-09T16:20:23.614Z,15.19
2017-03-09T16:22:47.270Z,15.26
2017-03-09T16:25:10.702Z,15.25
2017-03-09T16:27:34.256Z,15.05
2017-03-09T16:29:57.809Z,15.27
2017-03-09T16:31:59.600Z,15.3
2017-03-09T16:34:23.188Z,15.48
2017-03-09T16:36:46.737Z,15.43
2017-03-09T16:39:10.289Z,15.3
2017-03-09T16:41:33.882Z,15.32
2017-03-09T16:43:57.488Z,15.15
2017-03-09T16:46:21.085Z,15.27
2017-03-09T16:48:44.679Z,15.35
2017-03-09T16:51:08.253Z,15.26
2017-03-09T16:52:45.300Z,15.19
2017-03-09T16:55:08.111Z,15.14
2017-03-09T16:57:31.680Z,15.14
2017-03-09T16:59:46.805Z,15
2017-03-09T17:02:10.365Z,14.99
2017-03-09T17:04:33.826Z,14.85
2017-03-09T17:06:57.336Z,15
2017-03-09T17:09:20.906Z,14.86
2017-03-09T17:11:44.412Z,15
2017-03-09T17:13:59.493Z,14.77
2017-03-09T17:16:23.099Z,14.86
2017-03-09T17:18:46.673Z,14.87
2017-03-09T17:21:10.223Z,14.89
2017-03-09T17:23:33.745Z,14.93
2017-03-09T17:25:57.254Z,15.05
2017-03-09T17:27:33.487Z,15.07
2017-03-09T17:29:57.097Z,14.85
2017-03-09T17:32:12.200Z,14.79
2017-03-09T17:34:27.314Z,14.71
2017-03-09T17:36:50.824Z,14.61
2017-03-09T17:39:14.348Z,14.34
2017-03-09T17:41:24.572Z,14.45
2017-03-09T17:43:48.123Z,14.48
2017-03-09T17:46:11.651Z,14.63
2017-03-09T17:48:26.734Z,14.38
2017-03-09T17:50:50.252Z,14.49
2017-03-09T17:53:13.793Z,14.41
2017-03-09T17:55:37.278Z,14.49
2017-03-09T17:58:00.810Z,14.38
2017-03-09T18:00:15.934Z,14.61
2017-03-09T18:02:31.011Z,14.48
2017-03-09T18:04:54.531Z,14.53
2017-03-09T18:07:18.019Z,14.4
2017-03-09T18:09:19.731Z,14.61
2017-03-09T18:11:43.233Z,14.3
2017-03-09T18:14:06.768Z,14.48
2017-03-09T18:16:30.274Z,14.62
2017-03-09T18:18:53.806Z,14.51
2017-03-09T18:21:17.308Z,14.53
2017-03-09T18:23:40.783Z,14.53
2017-03-09T18:25:17.050Z,14.53
2017-03-09T18:27:40.577Z,14.41
2017-03-09T18:30:04.097Z,14.43
2017-03-09T18:32:27.601Z,14.45
2017-03-09T18:34:51.107Z,14.28
2017-03-09T18:37:16.651Z,14.41
2017-03-09T18:39:40.220Z,14.28
2017-03-09T18:42:03.787Z,14.26
2017-03-09T18:44:19.004Z,14.4
2017-03-09T18:46:42.529Z,14.18
2017-03-09T18:49:05.998Z,14.44
2017-03-09T18:51:29.462Z,14.44
2017-03-09T18:53:53.041Z,14.28
2017-03-09T18:56:16.598Z,14.28
2017-03-09T18:58:40.159Z,14.22
2017-03-09T19:01:03.739Z,14.31
2017-03-09T19:03:05.456Z,14.34
2017-03-09T19:05:29.901Z,14.19
2017-03-09T19:07:53.456Z,14.26
2017-03-09T19:10:17.231Z,14.34
2017-03-09T19:12:40.802Z,14.12
2017-03-09T19:14:55.872Z,14.23
2017-03-09T19:17:19.350Z,14.22
2017-03-09T19:19:42.839Z,14.05
2017-03-09T19:22:06.321Z,14.07
2017-03-09T19:24:29.890Z,13.94
2017-03-09T19:26:53.301Z,13.94
2017-03-09T19:29:16.780Z,14.05
2017-03-09T19:31:31.835Z,13.7
2017-03-09T19:33:55.253Z,13.76
2017-03-09T19:36:18.771Z,13.86
2017-03-09T19:38:42.236Z,13.73
2017-03-09T19:41:05.766Z,13.7
2017-03-09T19:43:29.844Z,13.71
2017-03-09T19:45:53.325Z,13.62
2017-03-09T19:48:16.896Z,13.64
2017-03-09T19:50:40.365Z,13.49
2017-03-09T19:53:03.772Z,13.49
2017-03-09T19:55:27.245Z,13.55
2017-03-09T19:57:42.366Z,13.65
2017-03-09T20:00:06.686Z,13.54
2017-03-09T20:02:30.413Z,13.54
2017-03-09T20:04:54.367Z,13.42
2017-03-09T20:07:17.601Z,13.45
2017-03-09T20:09:41.109Z,13.33
2017-03-09T20:12:04.682Z,13.21
2017-03-09T20:14:28.196Z,13.17
2017-03-09T20:16:38.546Z,13.28
2017-03-09T20:19:02.198Z,13.28
2017-03-09T20:21:25.645Z,13.27
2017-03-09T20:23:49.739Z,13.12
2017-03-09T20:26:12.543Z,13.16
2017-03-09T20:28:36.299Z,13.09
2017-03-09T20:31:01.766Z,13.01
2017-03-09T20:33:24.689Z,13.28
2017-03-09T20:35:48.500Z,13.16
2017-03-09T20:38:12.202Z,13.12
2017-03-09T20:40:35.426Z,13.17
2017-03-09T20:42:58.898Z,12.98
2017-03-09T20:45:24.781Z,12.99
2017-03-09T20:47:48.333Z,13.02
2017-03-09T20:50:12.799Z,12.94
2017-03-09T20:52:37.504Z,13.17
2017-03-09T20:55:01.424Z,12.95
2017-03-09T20:57:26.445Z,12.95
2017-03-09T20:59:50.743Z,13.02
2017-03-09T21:02:14.721Z,12.9
2017-03-09T21:04:39.762Z,12.86
2017-03-09T21:07:03.746Z,12.9
2017-03-09T21:09:27.514Z,12.99
2017-03-09T21:11:51.748Z,12.84
2017-03-09T21:14:17.277Z,12.84
2017-03-09T21:16:42.387Z,12.91
2017-03-09T21:19:06.572Z,12.84
2017-03-09T21:21:30.702Z,12.86
2017-03-09T21:23:56.467Z,12.73
2017-03-09T21:26:22.215Z,12.7
2017-03-09T21:28:46.934Z,12.68
2017-03-09T21:31:11.391Z,12.69
2017-03-09T21:33:35.321Z,12.66
2017-03-09T21:35:59.417Z,12.65
2017-03-09T21:38:24.131Z,12.69
2017-03-09T21:40:47.711Z,12.5
2017-03-09T21:43:11.373Z,12.68
2017-03-09T21:45:35.180Z,12.69
2017-03-09T21:47:59.463Z,12.61
2017-03-09T21:50:23.263Z,12.7
2017-03-09T21:52:47.646Z,12.63
2017-03-09T21:55:11.539Z,12.83
2017-03-09T21:57:35.022Z,12.8
2017-03-09T21:59:59.443Z,12.91
2017-03-09T22:02:23.070Z,12.94
2017-03-09T22:04:46.449Z,12.94
2017-03-09T22:07:10.064Z,12.84
2017-03-09T22:09:33.480Z,12.75
2017-03-09T22:11:56.806Z,12.69
2017-03-09T22:14:20.131Z,12.83
2017-03-09T22:16:43.452Z,12.78
2017-03-09T22:19:06.974Z,12.62
2017-03-09T22:21:30.257Z,12.51
2017-03-09T22:23:53.695Z,12.57
2017-03-09T22:26:17.078Z,12.65
2017-03-09T22:28:40.526Z,12.78
2017-03-09T22:31:04.000Z,12.61
2017-03-09T22:33:27.477Z,12.53
2017-03-09T22:35:50.950Z,12.63
2017-03-09T22:38:15.458Z,12.62
2017-03-09T22:40:38.904Z,12.78
2017-03-09T22:43:02.884Z,12.84
2017-03-09T22:45:26.354Z,12.94
2017-03-09T22:47:49.881Z,12.84
2017-03-09T22:50:13.187Z,12.76
2017-03-09T22:52:36.751Z,12.87
2017-03-09T22:55:00.346Z,12.87
2017-03-09T22:57:23.592Z,12.69
2017-03-09T22:59:46.979Z,12.8
2017-03-09T23:02:10.407Z,12.78
2017-03-09T23:04:33.773Z,12.84
2017-03-09T23:06:57.237Z,12.81
2017-03-09T23:09:20.704Z,12.62
2017-03-09T23:11:35.663Z,12.65
2017-03-09T23:13:59.143Z,12.65
2017-03-09T23:16:22.615Z,12.61
2017-03-09T23:18:46.074Z,12.51
2017-03-09T23:21:01.045Z,12.66
2017-03-09T23:23:24.408Z,12.55
2017-03-09T23:25:47.876Z,12.66
2017-03-09T23:27:49.556Z,12.51
2017-03-09T23:30:12.939Z,12.54
2017-03-09T23:31:49.173Z,12.33
2017-03-09T23:34:12.621Z,12.4
2017-03-09T23:36:36.101Z,12.48
2017-03-09T23:38:59.456Z,12.53
2017-03-09T23:41:22.829Z,12.36
2017-03-09T23:43:37.806Z,12.51
2017-03-09T23:46:01.263Z,12.63
2017-03-09T23:48:24.738Z,12.68
2017-03-09T23:50:39.688Z,12.72
2017-03-09T23:53:03.067Z,12.54
2017-03-09T23:55:26.423Z,12.51
2017-03-09T23:57:28.080Z,12.58
2017-03-09T23:59:51.672Z,12.63
